Austin, TX (78715)

1:14 PM CDT on September 17, 2014 (GMT -0500)
South Manchaca | Change Station
CLOSE
Current Station
Personal Weather Station
Location: Austin, TX
Elevation: 679 ft
Nearby Weather Stations

Elev 679 ft 30.21 °N, 97.79 °W | Updated 0 second ago

Partly Cloudy
Partly Cloudy
88.5 °F
Feels Like 100 °F
N
0.0
Wind Variable Wind from West
Gusts 0.0 mph

Today
High -- | Low -- °F
--% Chance of Precip.
Yesterday
High -- | Low -- °F
Precip. -- in
7:16 AM 7:33 PM
Waning Crescent, 34% visible
Pressure 29.94 in
Visibility 10.0 miles
Clouds Scattered Clouds 2800 ft
Mostly Cloudy 4500 ft
Mostly Cloudy 25000 ft
Heat Index 100 °F
Dew Point 77 °F
Humidity 68%
Rainfall 0.00 in
Snow Depth Not available.
UV 5 out of 12
Pollen 8.20 out of 12
Ozone Good
PM2.5 Good
Flu Activity Not available.
METAR KAUS 171753Z 09007KT 10SM SCT028 BKN045 BKN250 31/24 A2994

More Conditions Fewer Conditions

Pressure 29.94 in
Visibility 10.0 miles
Clouds Scattered Clouds 2800 ft
Mostly Cloudy 4500 ft
Mostly Cloudy 25000 ft
Heat Index 100 °F
Dew Point 77 °F
Humidity 68%
Rainfall 0.00 in
Snow Depth Not available.
UV 5 out of 12
Pollen 8.20 out of 12
Ozone Good
PM2.5 Good
Flu Activity Not available.
METAR KAUS 171753Z 09007KT 10SM SCT028 BKN045 BKN250 31/24 A2994

More Conditions Fewer Conditions

Nowcast | as of 1:01 PM CDT on September 17, 2014

Through 3 PM...isolated showers will move toward the north. These showers will produce moderate rain with rainfall totals up to half an inch. Some of these showers will develop into thunderstorms and produce occasional lightning.

×

10-Day Weather Forecast

Almanac

Astronomy

Sep. 17, 2014 Rise Set
Actual Time 7:16 AM CDT 7:33 PM CDT
Civil Twilight 6:52 AM CDT 7:57 PM CDT
Nautical Twilight 6:24 AM CDT 8:25 PM CDT
Astronomical Twilight 5:56 AM CDT 8:54 PM CDT
Moon 1:35 AM CDT 3:27 PM CDT
Length of Visible Light 13h 05m
Length of Day
12h 17m
Tomorrow will be 1m 48s shorter.
Waning Crescent, 34% of the Moon is Illuminated
Today
Waning Crescent
Sep 24
New
Oct 1
First Quarter
Oct 8
Full
Oct 15
Last Quarter

Today's Extremes

State Highs State Lows

Community

WunderPhotos

Upload Photos

1,754,122 photos uploaded!

WunderBlogs® & News

Nearby

Air Quality

  Air Quality AQ Index Pollutant
Yesterday Good
OZONE
Yesterday Good
PM2.5
Current Good
PM2.5
Current Good
OZONE
Wednesday Good
OZONE
Wednesday Good
PM10
Thursday Good
OZONE
Thursday Good
PM10
Friday Good
OZONE
Friday Good
PM10
Saturday Good
OZONE
Saturday Good
PM10

Snow Depth

Station Depth Elevation
No new snow has been reported.

Earthquake Activity

City Distance Mag. Time & Date
No recent earthquake activity has been reported nearby.
Minimum magnitude displayed is 2.5.

Coastal Water Temperatures

Place Temperature
No Stations Reporting

Nearby Weather Stations